ěÝzenÝ letovÚho provozu ╚eskÚ republiky
Letiste: LKCS Aktualizace: 12.07.2024 22:30:40  UTC
 METAR LKCS 12.07. 22:30 ...
METAR LKCS 122230Z AUTO 30004KT 260V330 CAVOK 20/19 Q1011=
 TAF LKCS 12.07. 21:12 RRD
TAF LKCS 122110Z 1221/1306 CNL=